createdAt,value
2022-07-28T00:00:12.998Z,17.34
2022-07-28T00:02:40.094Z,17.36
2022-07-28T00:05:08.051Z,17.32
2022-07-28T00:07:35.359Z,17.33
2022-07-28T00:11:36.090Z,17.25
2022-07-28T00:14:17.866Z,17.13
2022-07-28T00:16:45.342Z,17.14
2022-07-28T00:19:12.683Z,17.07
2022-07-28T00:21:39.950Z,17.03
2022-07-28T00:24:07.861Z,16.98
2022-07-28T00:26:35.290Z,16.95
2022-07-28T00:29:02.541Z,16.92
2022-07-28T00:31:29.874Z,16.89
2022-07-28T00:33:57.801Z,16.86
2022-07-28T00:36:25.722Z,16.79
2022-07-28T00:38:53.316Z,16.84
2022-07-28T00:41:23.003Z,16.83
2022-07-28T00:43:52.715Z,16.80
2022-07-28T00:46:22.439Z,16.79
2022-07-28T00:48:52.959Z,16.75
2022-07-28T00:51:24.306Z,16.69
2022-07-28T00:53:52.690Z,16.64
2022-07-28T00:56:20.923Z,16.57
2022-07-28T00:58:48.707Z,16.49
2022-07-28T01:01:20.339Z,16.47
2022-07-28T01:03:53.436Z,16.44
2022-07-28T01:06:40.098Z,16.43
2022-07-28T01:09:17.502Z,16.42
2022-07-28T01:12:22.746Z,16.41
2022-07-28T01:15:08.948Z,16.40
2022-07-28T01:17:59.440Z,16.35
2022-07-28T01:20:47.468Z,16.32
2022-07-28T01:23:32.811Z,16.30
2022-07-28T01:26:21.814Z,16.30
2022-07-28T01:29:16.626Z,16.27
2022-07-28T01:31:50.689Z,16.25
2022-07-28T01:34:33.553Z,16.32
2022-07-28T01:37:11.045Z,16.34
2022-07-28T01:39:42.915Z,16.38
2022-07-28T01:42:13.480Z,16.40
2022-07-28T01:44:46.509Z,16.39
2022-07-28T01:47:15.359Z,16.42
2022-07-28T01:49:46.087Z,16.44
2022-07-28T01:52:15.901Z,16.44
2022-07-28T01:54:46.212Z,16.45
2022-07-28T01:57:17.918Z,16.43
2022-07-28T01:59:47.378Z,16.37
2022-07-28T02:02:17.759Z,16.33
2022-07-28T02:04:48.223Z,16.31
2022-07-28T02:07:18.264Z,16.29
2022-07-28T02:09:46.293Z,16.29
2022-07-28T02:12:17.445Z,16.27
2022-07-28T02:14:49.306Z,16.23
2022-07-28T02:17:25.427Z,16.26
2022-07-28T02:19:53.786Z,16.26
2022-07-28T02:22:22.066Z,16.24
2022-07-28T02:24:49.769Z,16.22
2022-07-28T02:27:25.336Z,16.21
2022-07-28T02:30:08.573Z,16.16
2022-07-28T02:32:47.714Z,16.12
2022-07-28T02:35:54.009Z,16.08
2022-07-28T02:38:47.558Z,16.00
2022-07-28T02:41:36.288Z,15.95
2022-07-28T02:44:12.114Z,15.93
2022-07-28T02:46:51.179Z,15.86
2022-07-28T02:49:31.863Z,15.86
2022-07-28T02:52:00.970Z,15.83
2022-07-28T02:54:30.897Z,15.81
2022-07-28T02:57:00.758Z,15.76
2022-07-28T02:59:28.898Z,15.74
2022-07-28T03:01:57.256Z,15.69
2022-07-28T03:04:44.469Z,15.66
2022-07-28T03:07:12.472Z,15.61
2022-07-28T03:09:42.170Z,15.61
2022-07-28T03:12:10.925Z,15.58
2022-07-28T03:14:38.634Z,15.55
2022-07-28T03:17:06.689Z,15.49
2022-07-28T03:19:35.265Z,15.47
2022-07-28T03:22:02.942Z,15.43
2022-07-28T03:24:35.728Z,15.34
2022-07-28T03:27:26.925Z,15.29
2022-07-28T03:30:21.404Z,15.23
2022-07-28T03:32:56.721Z,15.20
2022-07-28T03:35:25.137Z,15.15
2022-07-28T03:38:23.421Z,15.09
2022-07-28T03:40:53.933Z,15.09
2022-07-28T03:43:25.642Z,15.08
2022-07-28T03:45:53.352Z,15.04
2022-07-28T03:48:24.662Z,15.05
2022-07-28T03:50:51.850Z,15.07
2022-07-28T03:53:28.271Z,15.08
2022-07-28T03:55:56.173Z,15.10
2022-07-28T03:58:28.746Z,15.13
2022-07-28T04:00:57.369Z,15.15
2022-07-28T04:03:42.468Z,15.19
2022-07-28T04:06:13.000Z,15.26
2022-07-28T04:08:40.202Z,15.26
2022-07-28T04:11:07.996Z,15.37
2022-07-28T04:13:37.515Z,15.37
2022-07-28T04:16:07.104Z,15.49
2022-07-28T04:18:34.831Z,15.56
2022-07-28T04:21:01.894Z,15.61
2022-07-28T04:23:29.148Z,15.66
2022-07-28T04:25:56.978Z,15.74
2022-07-28T04:28:24.350Z,15.80
2022-07-28T04:30:52.663Z,15.86
2022-07-28T04:33:20.646Z,15.91
2022-07-28T04:35:47.987Z,15.98
2022-07-28T04:38:17.847Z,16.06
2022-07-28T04:40:45.293Z,16.08
2022-07-28T04:43:12.386Z,16.21
2022-07-28T04:45:40.167Z,16.28
2022-07-28T04:48:14.361Z,16.38
2022-07-28T04:50:45.551Z,16.46
2022-07-28T04:53:13.591Z,16.56
2022-07-28T04:55:40.900Z,16.65
2022-07-28T04:58:09.369Z,16.67
2022-07-28T05:00:36.785Z,16.76
2022-07-28T05:03:05.135Z,16.80
2022-07-28T05:05:32.213Z,16.92
2022-07-28T05:07:59.204Z,17.02
2022-07-28T05:10:26.523Z,17.08
2022-07-28T05:12:54.507Z,17.15
2022-07-28T05:15:21.758Z,17.18
2022-07-28T05:17:50.217Z,17.24
2022-07-28T05:20:17.613Z,17.27
2022-07-28T05:22:51.046Z,17.33
2022-07-28T05:25:21.416Z,17.38
2022-07-28T05:27:49.052Z,17.47
2022-07-28T05:30:18.165Z,17.54
2022-07-28T05:32:45.671Z,17.72
2022-07-28T05:35:13.756Z,17.88
2022-07-28T05:37:40.890Z,18.01
2022-07-28T05:40:14.741Z,18.19
2022-07-28T05:42:47.652Z,18.32
2022-07-28T05:45:16.628Z,18.47
2022-07-28T05:47:50.824Z,18.63
2022-07-28T05:50:21.421Z,18.79
2022-07-28T05:52:50.097Z,18.93
2022-07-28T05:55:17.909Z,19.08
2022-07-28T05:57:45.532Z,19.21
2022-07-28T06:00:16.503Z,19.35
2022-07-28T06:02:49.647Z,19.46
2022-07-28T06:05:19.081Z,19.58
2022-07-28T06:07:48.451Z,19.68
2022-07-28T06:10:19.469Z,19.79
2022-07-28T06:12:55.387Z,19.90
2022-07-28T06:15:28.097Z,19.99
2022-07-28T06:17:56.100Z,20.09
2022-07-28T06:20:25.818Z,20.18
2022-07-28T06:22:55.422Z,20.28
2022-07-28T06:25:27.387Z,20.38
2022-07-28T06:27:58.909Z,20.48
2022-07-28T06:30:27.395Z,20.55
2022-07-28T06:32:55.557Z,20.63
2022-07-28T06:35:23.383Z,20.73
2022-07-28T06:37:52.426Z,20.81
2022-07-28T06:40:22.126Z,20.89
2022-07-28T06:42:53.686Z,20.96
2022-07-28T06:45:21.842Z,21.06
2022-07-28T06:47:50.603Z,21.12
2022-07-28T06:50:26.431Z,21.20
2022-07-28T06:52:56.822Z,21.25
2022-07-28T06:55:24.136Z,21.20
2022-07-28T06:57:54.277Z,21.31
2022-07-28T07:00:21.803Z,21.34
2022-07-28T07:02:48.935Z,21.37
2022-07-28T07:05:16.763Z,21.40
2022-07-28T07:07:43.933Z,21.40
2022-07-28T07:10:11.809Z,21.46
2022-07-28T07:12:39.433Z,21.49
2022-07-28T07:15:07.886Z,21.53
2022-07-28T07:17:37.961Z,21.55
2022-07-28T07:20:06.748Z,21.61
2022-07-28T07:22:34.045Z,21.66
2022-07-28T07:25:15.367Z,21.72
2022-07-28T07:27:43.821Z,21.78
2022-07-28T07:30:12.464Z,21.83
2022-07-28T07:32:39.719Z,21.88
2022-07-28T07:35:08.092Z,21.96
2022-07-28T07:37:35.462Z,22.02
2022-07-28T07:40:05.099Z,22.11
2022-07-28T07:42:33.172Z,22.17
2022-07-28T07:45:00.242Z,22.22
2022-07-28T07:47:27.517Z,22.33
2022-07-28T07:49:54.451Z,22.43
2022-07-28T07:52:21.938Z,22.51
2022-07-28T07:54:48.881Z,22.61
2022-07-28T07:57:16.507Z,22.69
2022-07-28T07:59:43.808Z,22.81
2022-07-28T08:02:10.850Z,22.92
2022-07-28T08:04:38.478Z,23.02
2022-07-28T08:07:06.679Z,23.09
2022-07-28T08:09:35.172Z,23.22
2022-07-28T08:12:02.647Z,23.33
2022-07-28T08:14:29.686Z,23.42
2022-07-28T08:16:59.293Z,23.50
2022-07-28T08:19:27.209Z,23.57
2022-07-28T08:21:55.491Z,23.61
2022-07-28T08:24:33.086Z,23.69
2022-07-28T08:27:02.647Z,23.79
2022-07-28T08:29:30.164Z,23.85
2022-07-28T08:31:57.400Z,23.93
2022-07-28T08:34:31.117Z,23.98
2022-07-28T08:37:05.080Z,24.03
2022-07-28T08:39:34.482Z,24.07
2022-07-28T08:42:08.785Z,24.10
2022-07-28T08:45:06.460Z,24.14
2022-07-28T08:47:45.996Z,24.21
2022-07-28T08:50:25.609Z,24.25
2022-07-28T08:52:54.088Z,24.36
2022-07-28T08:55:31.550Z,24.43
2022-07-28T08:58:01.104Z,24.51
2022-07-28T09:00:28.673Z,24.62
2022-07-28T09:02:56.464Z,24.74
2022-07-28T09:05:24.777Z,24.87
2022-07-28T09:07:55.626Z,25.02
2022-07-28T09:10:24.141Z,25.15
2022-07-28T09:12:51.649Z,25.26
2022-07-28T09:15:18.709Z,25.38
2022-07-28T09:17:46.119Z,25.51
2022-07-28T09:20:13.893Z,25.64
2022-07-28T09:23:03.530Z,25.76
2022-07-28T09:25:31.864Z,25.89
2022-07-28T09:28:10.474Z,26.04
2022-07-28T09:30:53.980Z,26.15
2022-07-28T09:33:42.902Z,26.26
2022-07-28T09:36:16.337Z,26.33
2022-07-28T09:38:43.936Z,26.36
2022-07-28T09:41:11.827Z,26.37
2022-07-28T09:43:44.750Z,26.43
2022-07-28T09:46:21.771Z,26.44
2022-07-28T09:49:00.403Z,26.44
2022-07-28T09:51:31.054Z,26.43
2022-07-28T09:54:16.198Z,26.46
2022-07-28T09:56:45.565Z,26.48
2022-07-28T09:59:14.954Z,26.49
2022-07-28T10:02:01.813Z,26.50
2022-07-28T10:04:41.081Z,26.57
2022-07-28T10:07:19.927Z,26.60
2022-07-28T10:10:05.115Z,26.60
2022-07-28T10:12:37.921Z,26.63
2022-07-28T10:15:36.054Z,26.65
2022-07-28T10:18:04.859Z,26.67
2022-07-28T10:20:37.062Z,26.68
2022-07-28T10:23:06.900Z,26.72
2022-07-28T10:25:35.149Z,26.76
2022-07-28T10:28:04.256Z,26.82
2022-07-28T10:30:41.236Z,26.89
2022-07-28T10:33:19.542Z,26.95
2022-07-28T10:35:55.129Z,26.99
2022-07-28T10:38:28.318Z,27.05
2022-07-28T10:40:58.541Z,27.06
2022-07-28T10:43:29.390Z,27.15
2022-07-28T10:46:06.177Z,27.12
2022-07-28T10:48:37.800Z,27.19
2022-07-28T10:51:05.918Z,27.22
2022-07-28T10:54:00.067Z,27.22
2022-07-28T10:56:50.826Z,27.25
2022-07-28T10:59:32.878Z,27.30
2022-07-28T11:02:00.197Z,27.35
2022-07-28T11:04:48.261Z,27.46
2022-07-28T11:07:18.539Z,27.55
2022-07-28T11:09:47.589Z,27.65
2022-07-28T11:12:16.080Z,27.72
2022-07-28T11:14:43.802Z,27.79
2022-07-28T11:17:11.424Z,27.88
2022-07-28T11:20:24.728Z,27.92
2022-07-28T11:22:33.913Z,28.01
2022-07-28T11:25:20.775Z,28.10
2022-07-28T11:27:52.432Z,28.17
2022-07-28T11:30:21.308Z,28.23
2022-07-28T11:32:55.918Z,28.31
2022-07-28T11:35:29.459Z,28.37
2022-07-28T11:38:02.644Z,28.46
2022-07-28T11:40:41.615Z,28.55
2022-07-28T11:43:36.116Z,28.64
2022-07-28T11:46:07.581Z,28.71
2022-07-28T11:48:45.385Z,28.78
2022-07-28T11:51:13.941Z,28.84
2022-07-28T11:53:53.382Z,28.87
2022-07-28T11:56:31.829Z,28.91
2022-07-28T11:59:00.778Z,28.97
2022-07-28T12:01:27.907Z,29.04
2022-07-28T12:04:00.828Z,29.08
2022-07-28T12:06:39.069Z,29.15
2022-07-28T12:09:11.215Z,29.17
2022-07-28T12:11:41.338Z,29.17
2022-07-28T12:14:17.014Z,29.21
2022-07-28T12:16:46.219Z,29.29
2022-07-28T12:19:18.580Z,29.41
2022-07-28T12:21:55.634Z,29.58
2022-07-28T12:24:44.737Z,29.87
2022-07-28T12:27:15.419Z,30.11
2022-07-28T12:29:43.998Z,30.24
2022-07-28T12:32:17.626Z,30.41
2022-07-28T12:34:45.567Z,30.73
2022-07-28T12:37:14.037Z,31.13
2022-07-28T12:39:44.288Z,31.46
2022-07-28T12:42:13.299Z,31.82
2022-07-28T12:44:48.837Z,32.17
2022-07-28T12:47:28.117Z,32.40
2022-07-28T12:50:19.044Z,32.68
2022-07-28T12:53:08.239Z,32.94
2022-07-28T12:55:36.460Z,33.24
2022-07-28T12:58:05.119Z,33.68
2022-07-28T13:00:36.183Z,34.02
2022-07-28T13:03:27.005Z,34.30
2022-07-28T13:06:02.564Z,34.60
2022-07-28T13:08:44.517Z,34.84
2022-07-28T13:11:42.857Z,34.89
2022-07-28T13:14:04.965Z,34.80
2022-07-28T13:16:34.243Z,34.66
2022-07-28T13:19:05.621Z,34.43
2022-07-28T13:21:59.563Z,34.11
2022-07-28T13:24:29.934Z,33.74
2022-07-28T13:26:59.501Z,33.40
2022-07-28T13:29:26.963Z,33.24
2022-07-28T13:31:57.260Z,33.54
2022-07-28T13:34:24.670Z,34.09
2022-07-28T13:36:52.825Z,34.77
2022-07-28T13:39:20.169Z,35.43
2022-07-28T13:41:57.229Z,35.88
2022-07-28T13:44:31.889Z,36.03
2022-07-28T13:47:00.573Z,35.94
2022-07-28T13:49:32.974Z,35.68
2022-07-28T13:52:06.129Z,35.32
2022-07-28T13:54:40.371Z,35.11
2022-07-28T13:57:07.789Z,35.21
2022-07-28T13:59:36.179Z,35.63
2022-07-28T14:02:06.057Z,36.15
2022-07-28T14:04:45.662Z,36.81
2022-07-28T14:07:13.320Z,37.53
2022-07-28T14:09:50.159Z,38.29
2022-07-28T14:12:18.169Z,38.97
2022-07-28T14:14:47.855Z,39.51
2022-07-28T14:17:44.297Z,40.09
2022-07-28T14:20:14.635Z,40.69
2022-07-28T14:22:43.153Z,40.64
2022-07-28T14:25:11.788Z,40.27
2022-07-28T14:27:46.792Z,39.64
2022-07-28T14:30:13.898Z,38.95
2022-07-28T14:32:41.030Z,38.29
2022-07-28T14:35:08.741Z,37.67
2022-07-28T14:38:04.801Z,37.08
2022-07-28T14:40:23.748Z,36.55
2022-07-28T14:42:51.453Z,36.14
2022-07-28T14:45:18.679Z,35.77
2022-07-28T14:47:45.832Z,35.50
2022-07-28T14:50:13.608Z,35.64
2022-07-28T14:52:40.763Z,35.79
2022-07-28T14:55:12.560Z,35.90
2022-07-28T14:57:50.136Z,35.81
2022-07-28T15:00:24.397Z,35.55
2022-07-28T15:02:53.203Z,35.26
2022-07-28T15:05:21.501Z,35.23
2022-07-28T15:07:51.710Z,35.55
2022-07-28T15:10:19.489Z,36.14
2022-07-28T15:12:46.489Z,36.73
2022-07-28T15:15:14.225Z,37.19
2022-07-28T15:17:41.529Z,37.60
2022-07-28T15:20:10.570Z,38.08
2022-07-28T15:22:37.811Z,38.64
2022-07-28T15:25:05.745Z,39.20
2022-07-28T15:27:33.745Z,39.81
2022-07-28T15:30:02.823Z,40.10
2022-07-28T15:32:39.811Z,39.98
2022-07-28T15:35:14.632Z,39.78
2022-07-28T15:37:42.428Z,39.65
2022-07-28T15:40:10.680Z,39.67
2022-07-28T15:42:37.859Z,39.90
2022-07-28T15:45:05.825Z,40.13
2022-07-28T15:47:33.768Z,40.38
2022-07-28T15:50:01.317Z,40.51
2022-07-28T15:52:28.584Z,40.61
2022-07-28T15:54:56.611Z,40.74
2022-07-28T15:57:23.983Z,40.90
2022-07-28T15:59:51.247Z,41.14
2022-07-28T16:02:19.706Z,41.39
2022-07-28T16:04:53.496Z,41.60
2022-07-28T16:07:24.572Z,41.78
2022-07-28T16:09:55.601Z,41.84
2022-07-28T16:12:27.283Z,41.74
2022-07-28T16:14:54.292Z,41.35
2022-07-28T16:17:22.690Z,40.83
2022-07-28T16:19:51.167Z,40.30
2022-07-28T16:22:22.482Z,39.96
2022-07-28T16:24:51.020Z,39.77
2022-07-28T16:27:18.129Z,39.70
2022-07-28T16:29:45.749Z,39.76
2022-07-28T16:32:13.428Z,39.80
2022-07-28T16:34:40.866Z,39.85
2022-07-28T16:37:08.618Z,39.91
2022-07-28T16:39:35.793Z,39.96
2022-07-28T16:42:03.250Z,40.00
2022-07-28T16:44:31.166Z,40.03
2022-07-28T16:46:58.980Z,40.00
2022-07-28T16:49:26.772Z,39.88
2022-07-28T16:51:55.514Z,39.80
2022-07-28T16:54:23.309Z,39.73
2022-07-28T16:56:51.283Z,39.59
2022-07-28T16:59:18.292Z,39.43
2022-07-28T17:01:46.402Z,39.33
2022-07-28T17:04:16.231Z,39.18
2022-07-28T17:06:44.192Z,38.99
2022-07-28T17:09:12.672Z,38.83
2022-07-28T17:11:41.865Z,38.72
2022-07-28T17:14:11.427Z,38.60
2022-07-28T17:16:38.699Z,38.56
2022-07-28T17:19:06.224Z,38.49
2022-07-28T17:21:35.425Z,38.40
2022-07-28T17:24:03.023Z,38.28
2022-07-28T17:29:22.476Z,38.04
2022-07-28T17:31:50.183Z,37.90
2022-07-28T17:34:18.066Z,37.73
2022-07-28T17:36:45.756Z,37.57
2022-07-28T17:39:13.849Z,37.40
2022-07-28T17:41:40.850Z,37.11
2022-07-28T17:44:07.942Z,36.77
2022-07-28T17:46:35.162Z,36.33
2022-07-28T17:49:04.295Z,35.86
2022-07-28T17:51:31.807Z,35.49
2022-07-28T17:53:58.954Z,35.28
2022-07-28T17:56:26.531Z,35.11
2022-07-28T17:58:53.927Z,34.89
2022-07-28T18:01:21.518Z,34.59
2022-07-28T18:03:56.631Z,34.22
2022-07-28T18:06:34.891Z,33.78
2022-07-28T18:09:10.914Z,33.34
2022-07-28T18:11:57.101Z,32.88
2022-07-28T18:14:31.106Z,32.40
2022-07-28T18:16:59.450Z,32.02
2022-07-28T18:19:27.883Z,31.62
2022-07-28T18:21:56.247Z,31.22
2022-07-28T18:24:23.864Z,30.84
2022-07-28T18:26:54.954Z,30.48
2022-07-28T18:29:22.537Z,30.16
2022-07-28T18:31:52.288Z,29.83
2022-07-28T18:34:24.632Z,29.51
2022-07-28T18:36:53.841Z,29.21
2022-07-28T18:39:21.177Z,28.97
2022-07-28T18:41:48.350Z,28.73
2022-07-28T18:44:20.222Z,28.50
2022-07-28T18:46:48.762Z,28.24
2022-07-28T18:49:16.055Z,28.06
2022-07-28T18:51:44.042Z,27.87
2022-07-28T18:54:17.487Z,27.69
2022-07-28T18:56:47.802Z,27.48
2022-07-28T18:59:15.536Z,27.32
2022-07-28T19:01:42.830Z,27.16
2022-07-28T19:04:10.149Z,26.98
2022-07-28T19:06:37.495Z,26.83
2022-07-28T19:09:05.134Z,26.69
2022-07-28T19:11:33.579Z,26.56
2022-07-28T19:14:01.000Z,26.42
2022-07-28T19:16:28.538Z,26.31
2022-07-28T19:18:55.977Z,26.23
2022-07-28T19:21:24.412Z,26.10
2022-07-28T19:23:53.042Z,26.05
2022-07-28T19:26:21.632Z,25.99
2022-07-28T19:28:48.660Z,25.95
2022-07-28T19:31:15.840Z,25.89
2022-07-28T19:33:44.166Z,25.85
2022-07-28T19:36:15.594Z,25.81
2022-07-28T19:38:44.135Z,25.78
2022-07-28T19:41:13.183Z,25.77
2022-07-28T19:43:40.484Z,25.71
2022-07-28T19:46:08.433Z,25.70
2022-07-28T19:48:36.114Z,25.71
2022-07-28T19:51:03.938Z,25.69
2022-07-28T19:53:32.290Z,25.63
2022-07-28T19:56:01.767Z,25.60
2022-07-28T19:58:29.048Z,25.55
2022-07-28T20:00:56.715Z,25.51
2022-07-28T20:04:00.611Z,25.45
2022-07-28T20:06:12.440Z,25.38
2022-07-28T20:08:40.648Z,25.34
2022-07-28T20:11:08.521Z,25.29
2022-07-28T20:13:35.864Z,25.24
2022-07-28T20:16:02.991Z,25.18
2022-07-28T20:18:30.071Z,25.11
2022-07-28T20:20:57.625Z,25.07
2022-07-28T20:23:24.779Z,25.03
2022-07-28T20:25:52.321Z,24.98
2022-07-28T20:28:21.572Z,24.91
2022-07-28T20:30:50.093Z,24.85
2022-07-28T20:33:17.672Z,24.84
2022-07-28T20:35:44.865Z,24.79
2022-07-28T20:38:12.290Z,24.70
2022-07-28T20:40:39.528Z,24.70
2022-07-28T20:43:06.651Z,24.62
2022-07-28T20:45:34.500Z,24.58
2022-07-28T20:48:01.803Z,24.54
2022-07-28T20:50:29.294Z,24.50
2022-07-28T20:52:56.663Z,24.44
2022-07-28T20:55:23.969Z,24.41
2022-07-28T20:57:53.365Z,24.35
2022-07-28T21:00:21.698Z,24.32
2022-07-28T21:02:50.691Z,24.27
2022-07-28T21:05:34.775Z,24.23
2022-07-28T21:08:06.538Z,24.20
2022-07-28T21:10:37.241Z,24.14
2022-07-28T21:13:04.852Z,24.10
2022-07-28T21:15:32.822Z,24.09
2022-07-28T21:18:00.028Z,24.03
2022-07-28T21:20:28.530Z,24.00
2022-07-28T21:22:55.704Z,23.93
2022-07-28T21:25:22.863Z,23.89
2022-07-28T21:28:08.387Z,23.83
2022-07-28T21:30:35.822Z,23.78
2022-07-28T21:33:03.188Z,23.72
2022-07-28T21:35:30.691Z,23.67
2022-07-28T21:37:57.974Z,23.63
2022-07-28T21:40:25.701Z,23.60
2022-07-28T21:42:52.949Z,23.53
2022-07-28T21:45:20.458Z,23.50
2022-07-28T21:47:47.889Z,23.48
2022-07-28T21:50:15.131Z,23.43
2022-07-28T21:52:42.430Z,23.40
2022-07-28T21:55:10.453Z,23.36
2022-07-28T21:57:37.835Z,23.30
2022-07-28T22:00:12.157Z,23.27
2022-07-28T22:02:41.164Z,23.24
2022-07-28T22:05:09.177Z,23.20
2022-07-28T22:07:36.659Z,23.18
2022-07-28T22:10:05.210Z,23.15
2022-07-28T22:12:32.572Z,23.09
2022-07-28T22:14:59.769Z,23.08
2022-07-28T22:17:27.226Z,23.03
2022-07-28T22:19:54.338Z,22.97
2022-07-28T22:22:21.572Z,23.00
2022-07-28T22:24:49.721Z,22.98
2022-07-28T22:27:16.812Z,22.94
2022-07-28T22:29:50.140Z,22.93
2022-07-28T22:32:29.055Z,22.91
2022-07-28T22:34:58.143Z,22.88
2022-07-28T22:37:25.696Z,22.86
2022-07-28T22:39:52.953Z,22.82
2022-07-28T22:42:20.190Z,22.80
2022-07-28T22:44:48.473Z,22.79
2022-07-28T22:47:15.779Z,22.77
2022-07-28T22:49:43.038Z,22.71
2022-07-28T22:52:10.113Z,22.70
2022-07-28T23:00:08.514Z,22.60
2022-07-28T23:02:36.693Z,22.55
2022-07-28T23:05:05.170Z,22.52
2022-07-28T23:07:50.882Z,22.49
2022-07-28T23:10:19.036Z,22.45
2022-07-28T23:12:46.180Z,22.43
2022-07-28T23:15:13.316Z,22.39
2022-07-28T23:17:40.400Z,22.36
2022-07-28T23:20:08.484Z,22.34
2022-07-28T23:22:35.651Z,22.33
2022-07-28T23:25:03.870Z,22.29
2022-07-28T23:27:31.031Z,22.24
2022-07-28T23:29:58.289Z,22.24
2022-07-28T23:32:25.734Z,22.19
2022-07-28T23:34:53.096Z,22.16
2022-07-28T23:37:20.201Z,22.10
2022-07-28T23:39:47.559Z,22.06
2022-07-28T23:42:15.369Z,22.04
2022-07-28T23:44:43.149Z,21.99
2022-07-28T23:47:10.509Z,21.95
2022-07-28T23:49:37.759Z,21.91
2022-07-28T23:52:05.339Z,21.87
2022-07-28T23:54:32.959Z,21.84
2022-07-28T23:57:00.357Z,21.82
2022-07-28T23:59:27.520Z,21.77
